createdAt,value
2023-04-22T10:07:30.681Z,20.50
2023-04-22T10:07:41.808Z,20.70
2023-04-22T10:07:52.007Z,21.70
2023-04-22T10:08:02.210Z,21.50
2023-04-22T10:08:12.759Z,21.10
2023-04-22T10:08:23.176Z,20.30
2023-04-22T10:08:32.421Z,21.50
2023-04-22T10:08:42.419Z,23.40
2023-04-22T10:08:52.707Z,23.10
2023-04-22T10:09:02.744Z,24.40
2023-04-22T10:09:12.867Z,25.00
2023-04-22T10:09:33.048Z,25.40
2023-04-22T10:09:43.172Z,24.40
2023-04-22T10:09:53.508Z,23.60
2023-04-22T10:10:03.533Z,23.20
2023-04-22T10:10:13.731Z,24.70
2023-04-22T10:10:23.764Z,24.60
2023-04-22T10:10:33.813Z,24.70
2023-04-22T10:10:43.886Z,24.10
2023-04-22T10:10:54.154Z,24.10
2023-04-22T10:11:04.077Z,23.00
2023-04-22T10:11:14.341Z,21.70
2023-04-22T10:11:24.491Z,21.70
2023-04-22T10:11:35.256Z,21.90
2023-04-22T10:11:47.335Z,21.80
2023-04-22T10:11:54.904Z,23.30
2023-04-22T10:12:05.081Z,24.30
2023-04-22T10:12:18.619Z,25.40
2023-04-22T10:12:35.720Z,26.20
2023-04-22T10:12:42.699Z,28.30
2023-04-22T10:12:53.286Z,28.30
2023-04-22T10:13:02.837Z,27.80
2023-04-22T10:13:12.143Z,26.70
2023-04-22T10:13:22.428Z,26.20
2023-04-22T10:13:32.405Z,26.30
2023-04-22T10:13:52.613Z,28.10
2023-04-22T10:14:02.873Z,28.30
2023-04-22T10:14:12.862Z,29.80
2023-04-22T10:14:23.023Z,29.10
2023-04-22T10:14:33.105Z,28.20
2023-04-22T10:14:43.212Z,26.70
2023-04-22T10:14:53.355Z,24.30
2023-04-22T10:15:03.538Z,26.70
2023-04-22T10:15:13.765Z,25.60
2023-04-22T10:15:25.685Z,26.80
2023-04-22T10:15:34.183Z,26.90
2023-04-22T10:15:44.095Z,27.60
2023-04-22T10:15:54.264Z,29.20
2023-04-22T10:16:05.270Z,26.80
2023-04-22T10:16:14.459Z,26.80
2023-04-22T10:16:24.542Z,26.30
2023-04-22T10:16:34.568Z,25.40
2023-04-22T10:16:44.814Z,24.30
2023-04-22T10:16:54.883Z,24.10
2023-04-22T10:17:15.163Z,23.90
2023-04-22T10:17:26.402Z,23.80
2023-04-22T10:17:35.481Z,24.30
2023-04-22T10:17:45.605Z,24.90
2023-04-22T10:17:56.826Z,23.60
2023-04-22T10:18:06.600Z,23.30
2023-04-22T10:18:15.903Z,24.50
2023-04-22T10:18:36.119Z,24.90
2023-04-22T10:18:49.348Z,25.80
2023-04-22T10:18:56.338Z,26.70
2023-04-22T10:19:06.536Z,26.20
2023-04-22T10:19:16.588Z,26.60
2023-04-22T10:19:26.705Z,26.30
2023-04-22T10:19:36.806Z,30.10
2023-04-22T10:19:57.060Z,30.10
2023-04-22T10:20:08.134Z,30.80
2023-04-22T10:20:18.093Z,31.10
2023-04-22T10:20:28.223Z,35.00
2023-04-22T10:20:38.015Z,31.30
2023-04-22T10:20:48.657Z,33.70
2023-04-22T10:21:01.717Z,33.40
2023-04-22T10:21:18.063Z,40.60
2023-04-22T10:21:28.070Z,66.30
2023-04-22T10:21:38.329Z,58.40
2023-04-22T10:21:48.527Z,56.20
2023-04-22T10:21:58.507Z,53.70
2023-04-22T10:22:08.700Z,51.20
2023-04-22T10:22:18.955Z,49.50
2023-04-22T10:22:29.003Z,63.20
2023-04-22T10:22:39.116Z,52.40
2023-04-22T10:22:49.217Z,45.00
2023-04-22T10:22:59.436Z,42.80
2023-04-22T10:23:09.378Z,42.00
2023-04-22T10:23:19.518Z,41.30
2023-04-22T10:23:30.075Z,35.90
2023-04-22T10:23:41.148Z,35.80
2023-04-22T10:23:49.887Z,36.10
2023-04-22T10:24:00.667Z,37.40
2023-04-22T10:24:11.237Z,37.20
2023-04-22T10:24:21.236Z,37.60
2023-04-22T10:24:31.318Z,36.50
2023-04-22T10:24:50.565Z,33.50
2023-04-22T10:25:00.660Z,30.10
2023-04-22T10:25:10.822Z,26.50
2023-04-22T10:25:20.781Z,25.90
2023-04-22T10:25:31.072Z,25.90
2023-04-22T10:25:41.056Z,27.60
2023-04-22T10:25:51.261Z,28.40
2023-04-22T10:26:01.339Z,29.80
2023-04-22T10:26:11.495Z,31.20
2023-04-22T10:26:21.680Z,28.70
2023-04-22T10:26:31.650Z,27.90
2023-04-22T10:26:43.625Z,25.60
2023-04-22T10:26:51.918Z,25.20
2023-04-22T10:27:02.087Z,25.00
2023-04-22T10:27:12.182Z,24.80
2023-04-22T10:27:23.126Z,25.50
2023-04-22T10:27:32.363Z,26.10
2023-04-22T10:27:52.812Z,25.40
2023-04-22T10:28:02.861Z,24.90
2023-04-22T10:28:12.900Z,26.00
2023-04-22T10:28:23.178Z,26.40
2023-04-22T10:28:34.822Z,28.10
2023-04-22T10:28:43.279Z,29.10
2023-04-22T10:28:54.691Z,29.50
2023-04-22T10:29:07.926Z,29.00
2023-04-22T10:29:14.001Z,28.10
2023-04-22T10:29:24.183Z,27.00
2023-04-22T10:29:44.654Z,25.20
2023-04-22T10:29:54.567Z,25.70
2023-04-22T10:30:04.841Z,26.60
2023-04-22T10:30:14.981Z,27.20
2023-04-22T10:30:25.113Z,28.50
2023-04-22T10:30:35.219Z,29.40
2023-04-22T10:30:45.211Z,30.00
2023-04-22T10:30:55.395Z,29.00
2023-04-22T10:31:06.182Z,27.80
2023-04-22T10:31:15.687Z,27.60
2023-04-22T10:31:27.202Z,27.20
2023-04-22T10:31:36.573Z,25.40
2023-04-22T10:31:46.554Z,23.80
2023-04-22T10:31:57.237Z,24.60
2023-04-22T10:32:10.622Z,26.10
2023-04-22T10:32:17.915Z,25.10
2023-04-22T10:32:30.350Z,24.20
2023-04-22T10:32:37.194Z,22.90
2023-04-22T10:32:48.647Z,23.50
2023-04-22T10:32:58.314Z,22.60
2023-04-22T10:33:09.250Z,22.10
2023-04-22T10:33:18.359Z,22.40
2023-04-22T10:33:38.796Z,28.30
2023-04-22T10:33:48.025Z,32.10
2023-04-22T10:33:58.068Z,32.50
2023-04-22T10:34:08.282Z,32.90
2023-04-22T10:34:18.352Z,37.00
2023-04-22T10:34:29.366Z,40.60
2023-04-22T10:34:40.670Z,37.30
2023-04-22T10:34:49.445Z,36.60
2023-04-22T10:34:58.883Z,38.00
2023-04-22T10:35:09.835Z,38.40
2023-04-22T10:35:19.030Z,35.20
2023-04-22T10:35:29.807Z,33.00
2023-04-22T10:35:49.382Z,30.20
2023-04-22T10:35:59.540Z,28.90
2023-04-22T10:36:10.336Z,27.80
2023-04-22T10:36:20.115Z,28.10
2023-04-22T10:36:30.813Z,29.00
2023-04-22T10:36:40.776Z,30.00
2023-04-22T10:36:50.213Z,29.80
2023-04-22T10:37:00.766Z,30.90
2023-04-22T10:37:11.306Z,31.80
2023-04-22T10:37:21.318Z,31.20
2023-04-22T10:37:33.196Z,33.80
2023-04-22T10:37:41.153Z,34.10
2023-04-22T10:37:50.842Z,33.40
2023-04-22T10:38:01.105Z,34.90
2023-04-22T10:38:11.804Z,36.30
2023-04-22T10:38:31.063Z,33.30
2023-04-22T10:38:41.294Z,32.60
2023-04-22T10:38:51.466Z,33.40
2023-04-22T10:39:03.762Z,33.20
2023-04-22T10:39:11.732Z,31.20
2023-04-22T10:39:21.909Z,30.90
2023-04-22T10:39:31.990Z,31.60
2023-04-22T10:39:42.544Z,32.20
2023-04-22T10:39:52.214Z,32.00
2023-04-22T10:40:12.478Z,28.70
2023-04-22T10:40:22.572Z,27.20
2023-04-22T10:40:32.732Z,26.10
2023-04-22T10:40:42.916Z,27.20
2023-04-22T10:40:53.165Z,26.20
2023-04-22T10:41:03.835Z,26.60
2023-04-22T10:41:13.329Z,26.60
2023-04-22T10:41:23.584Z,25.40
2023-04-22T10:41:34.197Z,28.80
2023-04-22T10:41:43.662Z,26.80
2023-04-22T10:41:54.668Z,26.30
2023-04-22T10:42:03.907Z,26.20
2023-04-22T10:42:14.049Z,29.70
2023-04-22T10:42:24.149Z,30.60
2023-04-22T10:42:34.138Z,29.20
2023-04-22T10:42:44.356Z,31.40
2023-04-22T10:43:04.669Z,32.00
2023-04-22T10:43:14.747Z,34.30
2023-04-22T10:43:24.855Z,35.90
2023-04-22T10:43:34.739Z,34.10
2023-04-22T10:43:45.188Z,32.80
2023-04-22T10:43:54.939Z,32.80
2023-04-22T10:44:05.092Z,32.80
2023-04-22T10:44:15.120Z,35.00
2023-04-22T10:44:25.288Z,34.50
2023-04-22T10:44:35.365Z,34.30
2023-04-22T10:44:45.497Z,33.10
2023-04-22T10:44:55.653Z,33.30
2023-04-22T10:45:05.737Z,36.10
2023-04-22T10:45:16.679Z,28.60
2023-04-22T10:45:25.993Z,27.10
2023-04-22T10:45:36.134Z,27.00
2023-04-22T10:45:46.237Z,28.30
2023-04-22T10:45:56.596Z,28.90
2023-04-22T10:46:06.485Z,27.20
2023-04-22T10:46:27.628Z,31.10
2023-04-22T10:46:36.828Z,33.00
2023-04-22T10:46:47.013Z,32.20
2023-04-22T10:46:57.097Z,35.10
2023-04-22T10:47:07.241Z,33.10
2023-04-22T10:47:17.405Z,33.50
2023-04-22T10:47:37.650Z,31.60
2023-04-22T10:47:47.889Z,32.20
2023-04-22T10:47:57.901Z,27.60
2023-04-22T10:48:08.032Z,27.10
2023-04-22T10:48:18.257Z,26.80
2023-04-22T10:48:28.233Z,30.00
2023-04-22T10:48:39.337Z,31.70
2023-04-22T10:48:48.498Z,31.00
2023-04-22T10:48:58.672Z,31.00
2023-04-22T10:49:08.773Z,31.90
2023-04-22T10:49:18.729Z,30.00
2023-04-22T10:49:29.161Z,24.80
2023-04-22T10:49:49.217Z,30.70
2023-04-22T10:49:59.254Z,32.80
2023-04-22T10:50:09.435Z,32.20
2023-04-22T10:50:19.541Z,34.50
2023-04-22T10:50:29.676Z,35.30
2023-04-22T10:50:39.859Z,32.70
2023-04-22T10:50:50.411Z,32.60
2023-04-22T10:51:00.264Z,31.30
2023-04-22T10:51:11.344Z,33.40
2023-04-22T10:51:20.315Z,31.90
2023-04-22T10:51:30.518Z,31.20
2023-04-22T10:51:40.664Z,29.70
2023-04-22T10:51:50.840Z,29.80
2023-04-22T10:52:00.951Z,30.50
2023-04-22T10:52:21.012Z,29.80
2023-04-22T10:52:31.035Z,29.50
2023-04-22T10:52:41.263Z,29.70
2023-04-22T10:52:51.406Z,36.80
2023-04-22T10:53:01.411Z,41.50
2023-04-22T10:53:11.699Z,62.10
2023-04-22T10:53:21.819Z,48.20
2023-04-22T10:53:31.881Z,44.60
2023-04-22T10:53:42.132Z,95.10
2023-04-22T10:53:52.255Z,86.20
2023-04-22T10:54:02.357Z,60.50
2023-04-22T10:54:12.538Z,54.30
2023-04-22T10:54:22.763Z,50.40
2023-04-22T10:54:32.968Z,50.10
2023-04-22T10:54:42.937Z,37.10
2023-04-22T10:54:53.289Z,38.60
2023-04-22T10:55:03.307Z,44.90
2023-04-22T10:55:14.156Z,43.50
2023-04-22T10:55:23.505Z,40.90
2023-04-22T10:55:33.696Z,75.30
2023-04-22T10:55:43.774Z,78.30
2023-04-22T10:55:53.895Z,60.70
2023-04-22T10:56:03.982Z,55.00
2023-04-22T10:56:24.187Z,48.40
2023-04-22T10:56:34.481Z,40.60
2023-04-22T10:56:57.996Z,38.70
2023-04-22T10:57:06.663Z,38.40
2023-04-22T10:57:15.263Z,32.20
2023-04-22T10:57:24.942Z,29.80
2023-04-22T10:57:34.956Z,28.70
2023-04-22T10:57:45.180Z,26.90
2023-04-22T10:57:55.307Z,25.50
2023-04-22T10:58:15.553Z,24.50
2023-04-22T10:58:25.626Z,29.30
2023-04-22T10:58:35.804Z,31.60
2023-04-22T10:58:45.861Z,31.20
2023-04-22T10:58:55.962Z,31.30
2023-04-22T10:59:06.169Z,32.60
2023-04-22T10:59:16.277Z,33.80
2023-04-22T10:59:27.069Z,31.50
2023-04-22T10:59:36.607Z,30.70
2023-04-22T10:59:47.462Z,29.90
2023-04-22T10:59:56.768Z,29.70
2023-04-22T11:00:06.931Z,28.40
2023-04-22T11:00:17.127Z,26.90
2023-04-22T11:00:28.231Z,23.00
2023-04-22T11:00:53.826Z,24.30
2023-04-22T11:01:00.063Z,27.80
2023-04-22T11:01:07.751Z,30.10
2023-04-22T11:01:21.302Z,33.00
2023-04-22T11:01:28.376Z,34.70
2023-04-22T11:01:38.268Z,36.60
2023-04-22T11:01:48.114Z,36.70
2023-04-22T11:02:08.024Z,33.90
2023-04-22T11:02:17.998Z,31.90
2023-04-22T11:02:28.300Z,29.80
2023-04-22T11:02:38.310Z,26.40
2023-04-22T11:02:48.407Z,23.70
2023-04-22T11:02:58.638Z,24.90
2023-04-22T11:03:08.850Z,25.50
2023-04-22T11:03:19.005Z,26.70
2023-04-22T11:03:29.792Z,27.80
2023-04-22T11:03:39.428Z,29.40
2023-04-22T11:03:49.246Z,29.40
2023-04-22T11:04:00.084Z,26.80
2023-04-22T11:04:09.560Z,26.30
2023-04-22T11:04:20.679Z,25.90
2023-04-22T11:04:30.117Z,26.50
2023-04-22T11:04:39.939Z,27.60
2023-04-22T11:04:49.963Z,30.10
2023-04-22T11:05:00.058Z,32.90
2023-04-22T11:05:11.218Z,33.30
